»·PEaware :: QXE2289 KGPI-KSEA

QXE2289 :: KGPI-KSEA

FLIGHT INFORMATION

Flight Status: Arrived
Operator:
Horizon Air
More flights by this operator :: More flights under this callsign
Pilot: Trevel L P. (20826)
Aircraft: DEHAVILLAND DASH 8 400
(DH8D)
More flights by this aircraft type
Origin: KGPI Glacier Park Intl
United States
Destination: KSEA Seattle-Tacoma Intl
United States
More flights between these airports :: More routes between these airports
Route: KILLY1 EYESE TEMPL GLASR1
File this flight plan on PilotEdge
Remarks: RMK / SIMBRIEF
Altitude:
(Current/Filed)
24,000ft
Speed:
(Current/Filed)
318kts
Departed: 13-Feb-21 10:38 AM
Arrived: 13-Feb-21 12:08 PM
Distance/Time
Traveled:
328nm/1:30
Distance/Time
To Go:
Arrived

Flight Plot

Page will automatically refresh every two minutes.

Flight plan parsing failed; only flown route is shown


Map Options




Map Legend


Flown Route
Filed Route
Departure Airport
Arrival Airport
Navaid (VOR, NDB)
Fix

Horizontal Profiles

Position Reports

Time Latitude Longitude Heading Altitude Ground
Speed
13-Feb-21 10:12 48.308443 -114.252694 130 2984ft 0kts
13-Feb-21 10:13 48.308443 -114.252694 130 2984ft 0kts
13-Feb-21 10:14 48.308443 -114.252694 130 2984ft 0kts
13-Feb-21 10:15 48.308443 -114.252694 130 2984ft 0kts
13-Feb-21 10:16 48.308443 -114.252694 130 2984ft 0kts
13-Feb-21 10:17 48.308443 -114.252694 130 2984ft 0kts
13-Feb-21 10:18 48.308443 -114.252694 130 2984ft 0kts
13-Feb-21 10:19 48.308443 -114.252694 130 2984ft 0kts
13-Feb-21 10:20 48.308443 -114.252694 130 2984ft 0kts
13-Feb-21 10:21 48.308443 -114.252694 130 2984ft 0kts
13-Feb-21 10:22 48.308443 -114.252694 130 2984ft 0kts
13-Feb-21 10:23 48.308443 -114.252694 130 2984ft 0kts
13-Feb-21 10:24 48.308443 -114.252694 130 2984ft 0kts
13-Feb-21 10:25 48.308720 -114.253186 137 2984ft 3kts
13-Feb-21 10:26 48.309203 -114.253175 207 2984ft 0kts
13-Feb-21 10:27 48.309203 -114.253175 207 2984ft 0kts
13-Feb-21 10:28 48.309203 -114.253175 207 2984ft 0kts
13-Feb-21 10:29 48.309203 -114.253175 207 2984ft 0kts
13-Feb-21 10:30 48.308261 -114.254030 216 2984ft 0kts
13-Feb-21 10:31 48.307540 -114.256451 214 2984ft 0kts
13-Feb-21 10:32 48.305040 -114.259069 214 2984ft 0kts
13-Feb-21 10:33 48.302014 -114.262204 214 2984ft 0kts
13-Feb-21 10:34 48.298550 -114.265773 215 2984ft 0kts
13-Feb-21 10:35 48.299169 -114.267246 30 2984ft 0kts
13-Feb-21 10:36 48.312319 -114.253609 34 3069ft 35kts
13-Feb-21 10:37 48.351376 -114.224748 349 5462ft 60kts
13-Feb-21 10:38 48.390659 -114.275564 309 8102ft 56kts
13-Feb-21 10:39 48.426948 -114.351547 293 10186ft 83kts
13-Feb-21 10:40 48.408856 -114.447650 232 12451ft 95kts
13-Feb-21 10:41 48.360149 -114.522561 196 14377ft 105kts
13-Feb-21 10:42 48.286442 -114.533472 182 15962ft 115kts
13-Feb-21 10:43 48.210455 -114.538806 191 17338ft 126kts
13-Feb-21 10:44 48.148330 -114.590288 247 18605ft 132kts
13-Feb-21 10:45 48.124713 -114.690844 257 19723ft 132kts
13-Feb-21 10:46 48.106434 -114.794803 258 20708ft 133kts
13-Feb-21 10:47 48.087775 -114.900642 258 21566ft 139kts
13-Feb-21 10:48 48.068672 -115.007684 258 22337ft 144kts
13-Feb-21 10:49 48.049097 -115.116823 257 22717ft 161kts
13-Feb-21 10:50 48.028326 -115.231755 257 23053ft 174kts
13-Feb-21 10:51 48.007233 -115.347339 257 23999ft 160kts
13-Feb-21 10:52 47.997678 -115.461681 267 24083ft 178kts
13-Feb-21 10:53 47.991827 -115.584198 266 24066ft 195kts
13-Feb-21 10:54 47.985345 -115.711060 266 24039ft 207kts
13-Feb-21 10:55 47.978670 -115.840196 266 24016ft 216kts
13-Feb-21 10:56 47.971750 -115.971182 266 24000ft 222kts
13-Feb-21 10:57 47.964695 -116.102230 266 23991ft 225kts
13-Feb-21 10:58 47.957431 -116.234201 266 23990ft 227kts
13-Feb-21 10:59 47.949998 -116.366714 265 23983ft 229kts
13-Feb-21 11:00 47.942414 -116.498973 265 23983ft 229kts
13-Feb-21 11:01 47.934683 -116.631115 265 23978ft 230kts
13-Feb-21 11:02 47.926738 -116.764125 265 23975ft 230kts
13-Feb-21 11:03 47.918653 -116.897020 265 23978ft 231kts
13-Feb-21 11:04 47.910365 -117.030454 264 23979ft 232kts
13-Feb-21 11:05 47.901918 -117.163713 264 23980ft 232kts
13-Feb-21 11:06 47.893314 -117.297576 264 23981ft 233kts
13-Feb-21 11:07 47.884468 -117.432152 264 23979ft 233kts
13-Feb-21 11:08 47.875461 -117.566736 264 23976ft 234kts
13-Feb-21 11:09 47.866295 -117.701733 264 23970ft 235kts
13-Feb-21 11:10 47.856917 -117.837376 264 23968ft 235kts
13-Feb-21 11:11 47.847379 -117.972619 264 23967ft 235kts
13-Feb-21 11:12 47.837653 -118.108710 264 23971ft 236kts
13-Feb-21 11:13 47.827814 -118.244031 264 23991ft 235kts
13-Feb-21 11:14 47.817784 -118.379546 263 24005ft 235kts
13-Feb-21 11:15 47.807620 -118.514765 263 24016ft 235kts
13-Feb-21 11:16 47.797257 -118.650383 263 24026ft 235kts
13-Feb-21 11:17 47.786722 -118.786072 263 24035ft 236kts
13-Feb-21 11:18 47.776013 -118.921881 263 24044ft 236kts
13-Feb-21 11:19 47.765139 -119.057576 263 24050ft 236kts
13-Feb-21 11:20 47.754074 -119.193636 263 24067ft 236kts
13-Feb-21 11:21 47.742840 -119.329722 262 24072ft 236kts
13-Feb-21 11:22 47.731425 -119.466749 263 24069ft 237kts
13-Feb-21 11:24 47.739595 -119.603619 277 24073ft 237kts
13-Feb-21 11:25 47.750275 -119.740705 275 24075ft 238kts
13-Feb-21 11:26 47.760857 -119.878267 276 24076ft 238kts
13-Feb-21 11:27 47.771365 -120.015500 276 24077ft 238kts
13-Feb-21 11:28 47.781183 -120.145998 275 24076ft 331kts
13-Feb-21 11:29 47.791431 -120.283803 275 24070ft 291kts
13-Feb-21 11:30 47.801427 -120.421228 275 24063ft 266kts
13-Feb-21 11:31 47.810834 -120.553002 275 23251ft 265kts
13-Feb-21 11:32 47.820646 -120.690319 275 21866ft 275kts
13-Feb-21 11:33 47.829926 -120.827992 274 20575ft 276kts
13-Feb-21 11:34 47.839330 -120.965940 274 19233ft 278kts
13-Feb-21 11:35 47.848438 -121.102880 274 17663ft 278kts
13-Feb-21 11:36 47.857167 -121.236776 274 15985ft 274kts
13-Feb-21 11:37 47.865359 -121.363086 273 14746ft 262kts
13-Feb-21 11:38 47.873162 -121.486574 273 13059ft 262kts
13-Feb-21 11:38 47.879225 -121.582972 272 11705ft 254kts
13-Feb-21 11:40 47.876628 -121.702715 234 10116ft 233kts
13-Feb-21 11:41 47.836626 -121.770591 222 10024ft 196kts
13-Feb-21 11:41 47.797608 -121.824667 219 10002ft 183kts
13-Feb-21 11:43 47.742697 -121.898478 220 10003ft 174kts
13-Feb-21 11:43 47.701268 -121.954212 220 10013ft 180kts
13-Feb-21 11:45 47.639528 -122.037072 220 10019ft 185kts
13-Feb-21 11:45 47.595445 -122.096097 221 10026ft 187kts
13-Feb-21 11:46 47.529109 -122.123015 178 10034ft 187kts
13-Feb-21 11:47 47.456965 -122.115359 179 9218ft 200kts
13-Feb-21 11:48 47.394662 -122.109019 179 8205ft 195kts
13-Feb-21 11:49 47.337420 -122.104470 179 7192ft 187kts
13-Feb-21 11:50 47.282796 -122.101733 178 6217ft 177kts
13-Feb-21 11:51 47.228876 -122.100721 179 5205ft 176kts
13-Feb-21 11:52 47.174031 -122.100316 178 4091ft 177kts
13-Feb-21 11:53 47.121202 -122.100279 179 3963ft 146kts
13-Feb-21 11:54 47.067291 -122.100486 179 3995ft 141kts
13-Feb-21 11:55 47.011000 -122.110976 222 4007ft 143kts
13-Feb-21 11:56 47.024196 -122.180407 334 3966ft 139kts
13-Feb-21 11:57 47.076628 -122.213585 335 3970ft 138kts
13-Feb-21 11:58 47.124504 -122.247445 325 3951ft 118kts
13-Feb-21 11:59 47.165713 -122.285532 335 4001ft 119kts
13-Feb-21 12:00 47.216584 -122.304748 351 4003ft 132kts
13-Feb-21 12:01 47.268533 -122.311448 357 3677ft 171kts
13-Feb-21 12:02 47.319899 -122.312632 0 2698ft 197kts
13-Feb-21 12:03 47.362586 -122.312268 1 1865ft 177kts
13-Feb-21 12:04 47.402664 -122.310165 358 1141ft 171kts
13-Feb-21 12:05 47.448177 -122.311121 2 448ft 170kts
13-Feb-21 12:06 47.459006 -122.309366 28 440ft 77kts
13-Feb-21 12:07 47.459588 -122.308839 50 440ft 26kts
13-Feb-21 12:08 47.459201 -122.306153 181 440ft 0kts
13-Feb-21 12:09 47.454046 -122.306194 180 440ft 0kts
13-Feb-21 12:10 47.447863 -122.306115 169 440ft 0kts
13-Feb-21 12:11 47.446552 -122.301948 171 441ft 0kts
13-Feb-21 12:12 47.445817 -122.301061 125 440ft 0kts
13-Feb-21 12:13 47.445817 -122.301061 125 440ft 0kts
13-Feb-21 12:14 47.445817 -122.301061 125 440ft 0kts
13-Feb-21 12:15 47.445817 -122.301061 125 440ft 0kts
13-Feb-21 12:16 47.445817 -122.301061 125 440ft 0kts

Navigation Log

Ident Type
Flight plan parsing failed, navigation log unavailable